Irongate — D5GT2 — position and weather

sailwx.info

Track history (hours):
 
Tides and Currents Weather Stations Pressure Air Temp Water Temp Dewpoint Dewpoint Depression Visibility Wind Speed Wind Dir Waves Ship Positions

Irongate

Last reported at 2018-Jan-25 10:50 UTC. Time now 2018-Feb-20 01:48 UTC.
Position S 38°58' E 142°49'.
Warning: this ship's position is 25 days out of date.

Length 169 m; draft 5.6 m.

Type: Cargo ship. MMSI: 636016558.

Date/timePositionNaut miles runAvg speedWind from/ knotsBaromVisibWave heightAir tempDewpointWater temp
2018-Jan-25 10:50S 38°58' E 142°49'2613.0
2018-Jan-25 08:52S 39°01' E 143°22'2712.9
2018-Jan-25 06:47S 39°02' E 143°56'8112.8
2018-Jan-25 00:25S 39°10' E 145°41'613.5
2018-Jan-25 00:00S 39°10' E 145°48'713.5
2018-Jan-24 23:30S 39°11' E 145°56'713.1
2018-Jan-24 23:00S 39°12' E 146°05'713.2
2018-Jan-24 22:30S 39°13' E 146°13'713.0
2018-Jan-24 22:00S 39°12' E 146°22'612.8
2018-Jan-24 21:30S 39°09' E 146°29'612.6
2018-Jan-24 21:00S 39°07' E 146°37'612.5
2018-Jan-24 20:30S 39°05' E 146°45'612.8
2018-Jan-24 20:00S 39°03' E 146°52'713.0
2018-Jan-24 19:30S 39°01' E 147°00'713.2
2018-Jan-24 19:00S 38°59' E 147°08'713.6
2018-Jan-24 18:30S 38°57' E 147°17'713.8
2018-Jan-24 18:00S 38°55' E 147°25'2214.1
2018-Jan-24 16:29S 38°48' E 147°51'714.1
2018-Jan-24 16:00S 38°46' E 147°59'1613.8
2018-Jan-24 14:51S 38°39' E 148°18'713.5
2018-Jan-24 14:18S 38°35' E 148°25'813.0
2018-Jan-24 13:41S 38°30' E 148°33'313.2
2018-Jan-24 13:27S 38°28' E 148°37'813.4
2018-Jan-24 12:50S 38°23' E 148°45'713.6
2018-Jan-24 12:19S 38°19' E 148°53'413.6
2018-Jan-24 11:59S 38°17' E 148°57'713.8
2018-Jan-24 11:28S 38°13' E 149°05'12913.0
2018-Jan-24 01:31S 36°24' E 150°34'1414.7
2018-Jan-24 00:33S 36°11' E 150°39'114.9
2018-Jan-24 00:30S 36°10' E 150°40'815.4
2018-Jan-24 00:00S 36°03' E 150°42'7914.7
2018-Jan-23 18:36S 34°48' E 151°13'113.3
2018-Jan-23 18:30S 34°46' E 151°13'713.4
2018-Jan-23 18:00S 34°40' E 151°16'3612.9
2018-Jan-23 15:13S 34°05' E 151°28'513.0
2018-Jan-23 14:48S 34°00' E 151°31'413.4
2018-Jan-23 14:30S 33°57' E 151°32'713.3
2018-Jan-23 13:57S 33°50' E 151°35'613.2
2018-Jan-23 13:30S 33°44' E 151°38'713.3
2018-Jan-23 13:00S 33°38' E 151°40'713.5
2018-Jan-23 12:28S 33°31' E 151°43'613.5
2018-Jan-23 12:00S 33°25' E 151°45'713.6
2018-Jan-23 11:30S 33°19' E 151°47'713.9
2018-Jan-23 11:00S 33°12' E 151°50'713.8
2018-Jan-23 10:31S 33°05' E 151°50'713.9
2018-Jan-23 10:01S 32°58' E 151°50'4 7.3
2018-Jan-23 09:28S 32°55' E 151°47'2 4.0
2018-Jan-23 09:01S 32°54' E 151°46'0 0.0
2018-Jan-23 05:59S 32°54' E 151°46'0 0.0
2018-Jan-23 05:29S 32°54' E 151°46'0 0.0
2018-Jan-23 04:56S 32°54' E 151°46'0 0.0
2018-Jan-23 04:29S 32°54' E 151°46'0 0.0
2018-Jan-23 03:59S 32°54' E 151°46'0 0.0
2018-Jan-23 03:29S 32°54' E 151°46'0 0.0
2018-Jan-23 02:59S 32°54' E 151°46'0 0.0
2018-Jan-23 02:26S 32°54' E 151°46'0 0.0
2018-Jan-23 01:11S 32°54' E 151°46'0 0.0
2018-Jan-23 00:59S 32°54' E 151°46'0 0.0
2018-Jan-23 00:29S 32°54' E 151°46'0 0.0
2018-Jan-22 22:08S 32°54' E 151°46'0 0.0
2018-Jan-22 19:41S 32°54' E 151°46'0 0.0
2018-Jan-22 19:29S 32°54' E 151°46'0 0.0
2018-Jan-22 18:59S 32°54' E 151°46'0 0.0
2018-Jan-22 18:23S 32°54' E 151°46'0 0.0
2018-Jan-22 17:53S 32°54' E 151°46'0 0.0
2018-Jan-22 08:47S 32°54' E 151°46'0 0.0
2018-Jan-22 08:11S 32°54' E 151°46'0 0.0
2018-Jan-22 07:59S 32°54' E 151°46'0 0.0
2018-Jan-22 06:05S 32°54' E 151°46'0 0.0
2018-Jan-22 05:11S 32°54' E 151°46'0 0.0
2018-Jan-22 04:59S 32°54' E 151°46'0 0.0
2018-Jan-22 04:29S 32°54' E 151°46'0 0.0
2018-Jan-22 03:59S 32°54' E 151°46'0 0.0
2018-Jan-22 03:29S 32°54' E 151°46'0 0.0
2018-Jan-22 02:59S 32°54' E 151°46'0 0.0
2018-Jan-22 02:23S 32°54' E 151°46'0 0.0
2018-Jan-22 01:59S 32°54' E 151°46'0 0.0
2018-Jan-22 01:29S 32°54' E 151°46'0 0.0
2018-Jan-22 00:59S 32°54' E 151°46'0 0.0
2018-Jan-22 00:29S 32°54' E 151°46'0 0.0
2018-Jan-21 19:02S 32°54' E 151°46'0 0.0
2018-Jan-21 18:02S 32°54' E 151°46'0 0.0
2018-Jan-21 17:59S 32°54' E 151°46'0 0.0
2018-Jan-21 15:05S 32°54' E 151°46'0 0.0
2018-Jan-21 14:56S 32°54' E 151°46'0 0.0
2018-Jan-21 08:20S 32°54' E 151°46'1 2.7
2018-Jan-21 08:01S 32°55' E 151°46'3 5.6
2018-Jan-21 07:31S 32°55' E 151°50'5 9.2
2018-Jan-21 07:01S 32°59' E 151°52'5 9.9
2018-Jan-21 06:31S 33°04' E 151°52'510.2
2018-Jan-21 06:01S 33°09' E 151°51'1 2.4
2018-Jan-21 05:29S 33°10' E 151°51'1 1.3
2018-Jan-21 04:59S 33°10' E 151°52'1 1.5
2018-Jan-21 04:29S 33°10' E 151°53'1 1.4
2018-Jan-21 03:59S 33°10' E 151°54'1 1.5
2018-Jan-21 03:23S 33°10' E 151°55'1 1.5
2018-Jan-21 02:59S 33°10' E 151°56'1 1.4
2018-Jan-21 02:29S 33°09' E 151°56'1 1.3
2018-Jan-21 01:59S 33°09' E 151°57'1 1.3
2018-Jan-21 01:29S 33°09' E 151°58'1 1.2
2018-Jan-21 00:59S 33°09' E 151°58'1 1.1
2018-Jan-21 00:29S 33°08' E 151°59'0 0.9
2018-Jan-20 23:59S 33°08' E 151°60'0 0.9
2018-Jan-20 23:29S 33°08' E 152°00'1 1.0
2018-Jan-20 22:56S 33°08' E 152°01'0 0.9
2018-Jan-20 22:29S 33°08' E 152°01'0 0.7
2018-Jan-20 21:59S 33°08' E 152°02'0 0.8
2018-Jan-20 21:29S 33°08' E 152°02'0 0.8
2018-Jan-20 20:59S 33°08' E 152°03'0 0.8
2018-Jan-20 20:29S 33°08' E 152°03'0 0.7
2018-Jan-20 19:59S 33°08' E 152°04'0 0.8
2018-Jan-20 19:29S 33°08' E 152°04'0 0.7
2018-Jan-20 18:59S 33°07' E 152°04'0 0.6
2018-Jan-20 18:29S 33°07' E 152°05'0 0.7
2018-Jan-20 17:59S 33°07' E 152°05'0 0.6
2018-Jan-20 17:29S 33°07' E 152°06'0 0.7
2018-Jan-20 16:56S 33°07' E 152°06'0 0.9
2018-Jan-20 16:29S 33°07' E 152°06'0 0.8
2018-Jan-20 15:59S 33°07' E 152°07'0 0.8
2018-Jan-20 15:29S 33°07' E 152°07'0 0.9
2018-Jan-20 14:59S 33°06' E 152°08'0 1.0
2018-Jan-20 14:29S 33°06' E 152°08'0 1.0
2018-Jan-20 13:59S 33°06' E 152°09'1 1.2
2018-Jan-20 13:29S 33°05' E 152°09'1 1.2
2018-Jan-20 12:59S 33°05' E 152°10'1 1.4
2018-Jan-20 12:29S 33°05' E 152°10'1 1.4
2018-Jan-20 11:56S 33°04' E 152°11'0 0.4
2018-Jan-20 11:30S 33°04' E 152°11'4 8.5
2018-Jan-20 11:01S 33°05' E 152°06'510.2
2018-Jan-20 10:30S 33°07' E 152°01'5 9.3
2018-Jan-20 10:00S 33°09' E 151°56'0 0.8
2018-Jan-20 09:30S 33°10' E 151°56'1 1.2
2018-Jan-20 09:00S 33°10' E 151°56'1 1.2
2018-Jan-20 08:30S 33°10' E 151°57'1 1.1
2018-Jan-20 08:00S 33°10' E 151°58'1 1.2
2018-Jan-20 07:30S 33°10' E 151°58'1 1.2
2018-Jan-20 07:00S 33°10' E 151°59'1 1.1
2018-Jan-20 06:30S 33°11' E 151°60'0 0.9
2018-Jan-20 06:00S 33°11' E 152°00'0 0.9
2018-Jan-20 05:30S 33°11' E 152°01'0 0.8
2018-Jan-20 05:00S 33°11' E 152°01'0 0.8
2018-Jan-20 04:30S 33°11' E 152°02'0 0.9
2018-Jan-20 04:00S 33°11' E 152°02'0 0.9
2018-Jan-20 03:30S 33°11' E 152°03'0 0.8
2018-Jan-20 03:00S 33°11' E 152°03'0 0.7
2018-Jan-20 02:21S 33°11' E 152°04'0 0.6
2018-Jan-20 02:00S 33°11' E 152°04'0 0.6
2018-Jan-20 01:30S 33°11' E 152°04'0 0.5
2018-Jan-20 01:00S 33°11' E 152°05'0 0.5
2018-Jan-20 00:30S 33°11' E 152°05'0 0.6
2018-Jan-20 00:00S 33°10' E 152°05'0 0.5
2018-Jan-19 23:30S 33°10' E 152°06'0 0.5
2018-Jan-19 23:00S 33°10' E 152°06'0 0.5
2018-Jan-19 22:30S 33°10' E 152°06'0 0.5
2018-Jan-19 22:00S 33°11' E 152°06'0 0.7
2018-Jan-19 21:30S 33°11' E 152°07'0 0.7
2018-Jan-19 20:54S 33°11' E 152°07'1 0.6
2018-Jan-19 19:27S 33°11' E 152°08'0 0.5
2018-Jan-19 19:00S 33°11' E 152°08'1 0.5
2018-Jan-19 17:30S 33°12' E 152°09'0 0.5
2018-Jan-19 17:00S 33°12' E 152°09'0 0.8
2018-Jan-19 16:30S 33°12' E 152°10'1 1.0
2018-Jan-19 16:00S 33°12' E 152°10'1 1.1
2018-Jan-19 15:30S 33°12' E 152°11'0 1.0
2018-Jan-19 15:00S 33°11' E 152°11'1 1.1
2018-Jan-19 14:30S 33°11' E 152°11'1 1.2
2018-Jan-19 14:00S 33°10' E 152°12'1 1.2
2018-Jan-19 13:30S 33°10' E 152°12'1 1.3
2018-Jan-19 13:00S 33°09' E 152°13'1 1.4
2018-Jan-19 12:27S 33°09' E 152°14'1 1.4
2018-Jan-19 11:57S 33°08' E 152°14'1 1.6
2018-Jan-19 11:30S 33°08' E 152°15'1 1.5
2018-Jan-19 11:00S 33°07' E 152°15'1 1.4
2018-Jan-19 10:30S 33°07' E 152°16'3 5.5
2018-Jan-19 10:00S 33°05' E 152°14'510.6
2018-Jan-19 09:30S 33°02' E 152°09'5 9.9
2018-Jan-19 09:00S 32°59' E 152°03'0 0.9
2018-Jan-19 08:28S 32°59' E 152°04'1 1.1
2018-Jan-19 07:58S 32°59' E 152°05'1 1.1
2018-Jan-19 07:28S 32°59' E 152°05'1 1.2
2018-Jan-19 06:58S 32°59' E 152°06'1 1.2
2018-Jan-19 06:28S 32°60' E 152°07'1 1.3
2018-Jan-19 05:58S 32°60' E 152°08'1 1.2
2018-Jan-19 05:28S 32°60' E 152°08'1 1.5
2018-Jan-19 05:00S 33°00' E 152°09'3 6.9
2018-Jan-19 04:30S 33°03' E 152°06'510.1
2018-Jan-19 04:00S 33°07' E 152°03'510.1
2018-Jan-19 03:30S 33°11' E 151°60'5 9.5
2018-Jan-19 03:00S 33°14' E 151°55'1 2.9
2018-Jan-19 02:30S 33°15' E 151°54'2 4.0
2018-Jan-19 02:00S 33°13' E 151°53'2 3.9
2018-Jan-19 01:30S 33°11' E 151°53'1 2.5
2018-Jan-19 01:00S 33°10' E 151°53'3 5.0
2018-Jan-19 00:30S 33°12' E 151°54'3 5.0
2018-Jan-19 00:00S 33°14' E 151°55'3 5.0
2018-Jan-18 23:30S 33°17' E 151°57'3 5.0
2018-Jan-18 23:00S 33°19' E 151°58'3 5.1
2018-Jan-18 22:30S 33°21' E 151°60'3 5.6
2018-Jan-18 22:00S 33°24' E 152°01'2 5.0
2018-Jan-18 21:30S 33°26' E 152°02'2 4.8
2018-Jan-18 21:00S 33°28' E 152°04'2 4.9
2018-Jan-18 20:30S 33°30' E 152°05'2 4.7
2018-Jan-18 20:00S 33°32' E 152°06'2 4.6
2018-Jan-18 19:30S 33°34' E 152°07'2 4.4
2018-Jan-18 19:00S 33°36' E 152°09'2 4.2
2018-Jan-18 18:30S 33°38' E 152°10'2 4.1
2018-Jan-18 18:00S 33°40' E 152°11'2 3.8
2018-Jan-18 17:30S 33°42' E 152°12'1 1.8
2018-Jan-18 17:00S 33°43' E 152°12'2 4.5
2018-Jan-18 16:30S 33°40' E 152°12'2 4.4
2018-Jan-18 16:00S 33°38' E 152°11'2 4.3
2018-Jan-18 15:30S 33°36' E 152°10'2 4.3
2018-Jan-18 15:00S 33°34' E 152°09'2 4.2
2018-Jan-18 14:30S 33°32' E 152°08'2 4.3
2018-Jan-18 14:00S 33°30' E 152°07'2 4.3
2018-Jan-18 13:26S 33°28' E 152°06'2 3.9
2018-Jan-18 13:00S 33°27' E 152°05'2 3.8
2018-Jan-18 12:23S 33°24' E 152°04'1 3.7
2018-Jan-18 12:00S 33°23' E 152°04'2 3.4
2018-Jan-18 11:28S 33°21' E 152°03'2 3.5
2018-Jan-18 11:01S 33°20' E 152°02'2 3.5
2018-Jan-18 10:31S 33°18' E 152°02'2 3.5
2018-Jan-18 10:00S 33°16' E 152°01'2 3.3
2018-Jan-18 09:30S 33°15' E 152°01'2 3.2
2018-Jan-18 09:00S 33°13' E 152°00'1 2.8
2018-Jan-18 08:30S 33°12' E 151°59'1 2.6
2018-Jan-18 08:01S 33°11' E 151°58'1 1.1
2018-Jan-18 07:30S 33°10' E 151°58'3 5.5
2018-Jan-18 07:00S 33°13' E 151°59'3 5.5
2018-Jan-18 06:30S 33°16' E 152°00'4 7.8
2018-Jan-18 06:01S 33°19' E 152°03'611.9
2018-Jan-18 05:31S 33°24' E 152°06'612.0
2018-Jan-18 05:00S 33°30' E 152°09'3 5.5
2018-Jan-18 04:31S 33°32' E 152°11'3 4.2
2018-Jan-18 03:41S 33°35' E 152°12'1 4.4
2018-Jan-18 03:27S 33°36' E 152°13'5 4.3
2018-Jan-18 02:17S 33°41' E 152°15'1 2.6
2018-Jan-18 01:59S 33°40' E 152°15'2 3.7
2018-Jan-18 01:30S 33°39' E 152°14'2 3.5
2018-Jan-18 01:00S 33°37' E 152°14'  
Track history (hours):
 
Tides and Currents Weather Stations Pressure Air Temp Water Temp Dewpoint Dewpoint Depression Visibility Wind Speed Wind Dir Waves Ship Positions

Irongate

Last reported at 2018-Jan-25 10:50 UTC. Time now 2018-Feb-20 01:48 UTC.
Position S 38°58' E 142°49'.
Warning: this ship's position is 25 days out of date.

Length 169 m; draft 5.6 m.

Type: Cargo ship. MMSI: 636016558.

Date/timePositionNaut miles runAvg speedWind from/ knotsBaromVisibWave heightAir tempDewpointWater temp
2018-Jan-25 10:50S 38°58' E 142°49'2613.0
2018-Jan-25 08:52S 39°01' E 143°22'2712.9
2018-Jan-25 06:47S 39°02' E 143°56'8112.8
2018-Jan-25 00:25S 39°10' E 145°41'613.5
2018-Jan-25 00:00S 39°10' E 145°48'713.5
2018-Jan-24 23:30S 39°11' E 145°56'713.1
2018-Jan-24 23:00S 39°12' E 146°05'713.2
2018-Jan-24 22:30S 39°13' E 146°13'713.0
2018-Jan-24 22:00S 39°12' E 146°22'612.8
2018-Jan-24 21:30S 39°09' E 146°29'612.6
2018-Jan-24 21:00S 39°07' E 146°37'612.5
2018-Jan-24 20:30S 39°05' E 146°45'612.8
2018-Jan-24 20:00S 39°03' E 146°52'713.0
2018-Jan-24 19:30S 39°01' E 147°00'713.2
2018-Jan-24 19:00S 38°59' E 147°08'713.6
2018-Jan-24 18:30S 38°57' E 147°17'713.8
2018-Jan-24 18:00S 38°55' E 147°25'2214.1
2018-Jan-24 16:29S 38°48' E 147°51'714.1
2018-Jan-24 16:00S 38°46' E 147°59'1613.8
2018-Jan-24 14:51S 38°39' E 148°18'713.5
2018-Jan-24 14:18S 38°35' E 148°25'813.0
2018-Jan-24 13:41S 38°30' E 148°33'313.2
2018-Jan-24 13:27S 38°28' E 148°37'813.4
2018-Jan-24 12:50S 38°23' E 148°45'713.6
2018-Jan-24 12:19S 38°19' E 148°53'413.6
2018-Jan-24 11:59S 38°17' E 148°57'713.8
2018-Jan-24 11:28S 38°13' E 149°05'12913.0
2018-Jan-24 01:31S 36°24' E 150°34'1414.7
2018-Jan-24 00:33S 36°11' E 150°39'114.9
2018-Jan-24 00:30S 36°10' E 150°40'815.4
2018-Jan-24 00:00S 36°03' E 150°42'7914.7
2018-Jan-23 18:36S 34°48' E 151°13'113.3
2018-Jan-23 18:30S 34°46' E 151°13'713.4
2018-Jan-23 18:00S 34°40' E 151°16'3612.9
2018-Jan-23 15:13S 34°05' E 151°28'513.0
2018-Jan-23 14:48S 34°00' E 151°31'413.4
2018-Jan-23 14:30S 33°57' E 151°32'713.3
2018-Jan-23 13:57S 33°50' E 151°35'613.2
2018-Jan-23 13:30S 33°44' E 151°38'713.3
2018-Jan-23 13:00S 33°38' E 151°40'713.5
2018-Jan-23 12:28S 33°31' E 151°43'613.5
2018-Jan-23 12:00S 33°25' E 151°45'713.6
2018-Jan-23 11:30S 33°19' E 151°47'713.9
2018-Jan-23 11:00S 33°12' E 151°50'713.8
2018-Jan-23 10:31S 33°05' E 151°50'713.9
2018-Jan-23 10:01S 32°58' E 151°50'4 7.3
2018-Jan-23 09:28S 32°55' E 151°47'2 4.0
2018-Jan-23 09:01S 32°54' E 151°46'0 0.0
2018-Jan-23 05:59S 32°54' E 151°46'0 0.0
2018-Jan-23 05:29S 32°54' E 151°46'0 0.0
2018-Jan-23 04:56S 32°54' E 151°46'0 0.0
2018-Jan-23 04:29S 32°54' E 151°46'0 0.0
2018-Jan-23 03:59S 32°54' E 151°46'0 0.0
2018-Jan-23 03:29S 32°54' E 151°46'0 0.0
2018-Jan-23 02:59S 32°54' E 151°46'0 0.0
2018-Jan-23 02:26S 32°54' E 151°46'0 0.0
2018-Jan-23 01:11S 32°54' E 151°46'0 0.0
2018-Jan-23 00:59S 32°54' E 151°46'0 0.0
2018-Jan-23 00:29S 32°54' E 151°46'0 0.0
2018-Jan-22 22:08S 32°54' E 151°46'0 0.0
2018-Jan-22 19:41S 32°54' E 151°46'0 0.0
2018-Jan-22 19:29S 32°54' E 151°46'0 0.0
2018-Jan-22 18:59S 32°54' E 151°46'0 0.0
2018-Jan-22 18:23S 32°54' E 151°46'0 0.0
2018-Jan-22 17:53S 32°54' E 151°46'0 0.0
2018-Jan-22 08:47S 32°54' E 151°46'0 0.0
2018-Jan-22 08:11S 32°54' E 151°46'0 0.0
2018-Jan-22 07:59S 32°54' E 151°46'0 0.0
2018-Jan-22 06:05S 32°54' E 151°46'0 0.0
2018-Jan-22 05:11S 32°54' E 151°46'0 0.0
2018-Jan-22 04:59S 32°54' E 151°46'0 0.0
2018-Jan-22 04:29S 32°54' E 151°46'0 0.0
2018-Jan-22 03:59S 32°54' E 151°46'0 0.0
2018-Jan-22 03:29S 32°54' E 151°46'0 0.0
2018-Jan-22 02:59S 32°54' E 151°46'0 0.0
2018-Jan-22 02:23S 32°54' E 151°46'0 0.0
2018-Jan-22 01:59S 32°54' E 151°46'0 0.0
2018-Jan-22 01:29S 32°54' E 151°46'0 0.0
2018-Jan-22 00:59S 32°54' E 151°46'0 0.0
2018-Jan-22 00:29S 32°54' E 151°46'0 0.0
2018-Jan-21 19:02S 32°54' E 151°46'0 0.0
2018-Jan-21 18:02S 32°54' E 151°46'0 0.0
2018-Jan-21 17:59S 32°54' E 151°46'0 0.0
2018-Jan-21 15:05S 32°54' E 151°46'0 0.0
2018-Jan-21 14:56S 32°54' E 151°46'0 0.0
2018-Jan-21 08:20S 32°54' E 151°46'1 2.7
2018-Jan-21 08:01S 32°55' E 151°46'3 5.6
2018-Jan-21 07:31S 32°55' E 151°50'5 9.2
2018-Jan-21 07:01S 32°59' E 151°52'5 9.9
2018-Jan-21 06:31S 33°04' E 151°52'510.2
2018-Jan-21 06:01S 33°09' E 151°51'1 2.4
2018-Jan-21 05:29S 33°10' E 151°51'1 1.3
2018-Jan-21 04:59S 33°10' E 151°52'1 1.5
2018-Jan-21 04:29S 33°10' E 151°53'1 1.4
2018-Jan-21 03:59S 33°10' E 151°54'1 1.5
2018-Jan-21 03:23S 33°10' E 151°55'1 1.5
2018-Jan-21 02:59S 33°10' E 151°56'1 1.4
2018-Jan-21 02:29S 33°09' E 151°56'1 1.3
2018-Jan-21 01:59S 33°09' E 151°57'1 1.3
2018-Jan-21 01:29S 33°09' E 151°58'1 1.2
2018-Jan-21 00:59S 33°09' E 151°58'1 1.1
2018-Jan-21 00:29S 33°08' E 151°59'0 0.9
2018-Jan-20 23:59S 33°08' E 151°60'0 0.9
2018-Jan-20 23:29S 33°08' E 152°00'1 1.0
2018-Jan-20 22:56S 33°08' E 152°01'0 0.9
2018-Jan-20 22:29S 33°08' E 152°01'0 0.7
2018-Jan-20 21:59S 33°08' E 152°02'0 0.8
2018-Jan-20 21:29S 33°08' E 152°02'0 0.8
2018-Jan-20 20:59S 33°08' E 152°03'0 0.8
2018-Jan-20 20:29S 33°08' E 152°03'0 0.7
2018-Jan-20 19:59S 33°08' E 152°04'0 0.8
2018-Jan-20 19:29S 33°08' E 152°04'0 0.7
2018-Jan-20 18:59S 33°07' E 152°04'0 0.6
2018-Jan-20 18:29S 33°07' E 152°05'0 0.7
2018-Jan-20 17:59S 33°07' E 152°05'0 0.6
2018-Jan-20 17:29S 33°07' E 152°06'0 0.7
2018-Jan-20 16:56S 33°07' E 152°06'0 0.9
2018-Jan-20 16:29S 33°07' E 152°06'0 0.8
2018-Jan-20 15:59S 33°07' E 152°07'0 0.8
2018-Jan-20 15:29S 33°07' E 152°07'0 0.9
2018-Jan-20 14:59S 33°06' E 152°08'0 1.0
2018-Jan-20 14:29S 33°06' E 152°08'0 1.0
2018-Jan-20 13:59S 33°06' E 152°09'1 1.2
2018-Jan-20 13:29S 33°05' E 152°09'1 1.2
2018-Jan-20 12:59S 33°05' E 152°10'1 1.4
2018-Jan-20 12:29S 33°05' E 152°10'1 1.4
2018-Jan-20 11:56S 33°04' E 152°11'0 0.4
2018-Jan-20 11:30S 33°04' E 152°11'4 8.5
2018-Jan-20 11:01S 33°05' E 152°06'510.2
2018-Jan-20 10:30S 33°07' E 152°01'5 9.3
2018-Jan-20 10:00S 33°09' E 151°56'0 0.8
2018-Jan-20 09:30S 33°10' E 151°56'1 1.2
2018-Jan-20 09:00S 33°10' E 151°56'1 1.2
2018-Jan-20 08:30S 33°10' E 151°57'1 1.1
2018-Jan-20 08:00S 33°10' E 151°58'1 1.2
2018-Jan-20 07:30S 33°10' E 151°58'1 1.2
2018-Jan-20 07:00S 33°10' E 151°59'1 1.1
2018-Jan-20 06:30S 33°11' E 151°60'0 0.9
2018-Jan-20 06:00S 33°11' E 152°00'0 0.9
2018-Jan-20 05:30S 33°11' E 152°01'0 0.8
2018-Jan-20 05:00S 33°11' E 152°01'0 0.8
2018-Jan-20 04:30S 33°11' E 152°02'0 0.9
2018-Jan-20 04:00S 33°11' E 152°02'0 0.9
2018-Jan-20 03:30S 33°11' E 152°03'0 0.8
2018-Jan-20 03:00S 33°11' E 152°03'0 0.7
2018-Jan-20 02:21S 33°11' E 152°04'0 0.6
2018-Jan-20 02:00S 33°11' E 152°04'0 0.6
2018-Jan-20 01:30S 33°11' E 152°04'0 0.5
2018-Jan-20 01:00S 33°11' E 152°05'0 0.5
2018-Jan-20 00:30S 33°11' E 152°05'0 0.6
2018-Jan-20 00:00S 33°10' E 152°05'0 0.5
2018-Jan-19 23:30S 33°10' E 152°06'0 0.5
2018-Jan-19 23:00S 33°10' E 152°06'0 0.5
2018-Jan-19 22:30S 33°10' E 152°06'0 0.5
2018-Jan-19 22:00S 33°11' E 152°06'0 0.7
2018-Jan-19 21:30S 33°11' E 152°07'0 0.7
2018-Jan-19 20:54S 33°11' E 152°07'1 0.6
2018-Jan-19 19:27S 33°11' E 152°08'0 0.5
2018-Jan-19 19:00S 33°11' E 152°08'1 0.5
2018-Jan-19 17:30S 33°12' E 152°09'0 0.5
2018-Jan-19 17:00S 33°12' E 152°09'0 0.8
2018-Jan-19 16:30S 33°12' E 152°10'1 1.0
2018-Jan-19 16:00S 33°12' E 152°10'1 1.1
2018-Jan-19 15:30S 33°12' E 152°11'0 1.0
2018-Jan-19 15:00S 33°11' E 152°11'1 1.1
2018-Jan-19 14:30S 33°11' E 152°11'1 1.2
2018-Jan-19 14:00S 33°10' E 152°12'1 1.2
2018-Jan-19 13:30S 33°10' E 152°12'1 1.3
2018-Jan-19 13:00S 33°09' E 152°13'1 1.4
2018-Jan-19 12:27S 33°09' E 152°14'1 1.4
2018-Jan-19 11:57S 33°08' E 152°14'1 1.6
2018-Jan-19 11:30S 33°08' E 152°15'1 1.5
2018-Jan-19 11:00S 33°07' E 152°15'1 1.4
2018-Jan-19 10:30S 33°07' E 152°16'3 5.5
2018-Jan-19 10:00S 33°05' E 152°14'510.6
2018-Jan-19 09:30S 33°02' E 152°09'5 9.9
2018-Jan-19 09:00S 32°59' E 152°03'0 0.9
2018-Jan-19 08:28S 32°59' E 152°04'1 1.1
2018-Jan-19 07:58S 32°59' E 152°05'1 1.1
2018-Jan-19 07:28S 32°59' E 152°05'1 1.2
2018-Jan-19 06:58S 32°59' E 152°06'1 1.2
2018-Jan-19 06:28S 32°60' E 152°07'1 1.3
2018-Jan-19 05:58S 32°60' E 152°08'1 1.2
2018-Jan-19 05:28S 32°60' E 152°08'1 1.5
2018-Jan-19 05:00S 33°00' E 152°09'3 6.9
2018-Jan-19 04:30S 33°03' E 152°06'510.1
2018-Jan-19 04:00S 33°07' E 152°03'510.1
2018-Jan-19 03:30S 33°11' E 151°60'5 9.5
2018-Jan-19 03:00S 33°14' E 151°55'1 2.9
2018-Jan-19 02:30S 33°15' E 151°54'2 4.0
2018-Jan-19 02:00S 33°13' E 151°53'2 3.9
2018-Jan-19 01:30S 33°11' E 151°53'1 2.5
2018-Jan-19 01:00S 33°10' E 151°53'3 5.0
2018-Jan-19 00:30S 33°12' E 151°54'3 5.0
2018-Jan-19 00:00S 33°14' E 151°55'3 5.0
2018-Jan-18 23:30S 33°17' E 151°57'3 5.0
2018-Jan-18 23:00S 33°19' E 151°58'3 5.1
2018-Jan-18 22:30S 33°21' E 151°60'3 5.6
2018-Jan-18 22:00S 33°24' E 152°01'2 5.0
2018-Jan-18 21:30S 33°26' E 152°02'2 4.8
2018-Jan-18 21:00S 33°28' E 152°04'2 4.9
2018-Jan-18 20:30S 33°30' E 152°05'2 4.7
2018-Jan-18 20:00S 33°32' E 152°06'2 4.6
2018-Jan-18 19:30S 33°34' E 152°07'2 4.4
2018-Jan-18 19:00S 33°36' E 152°09'2 4.2
2018-Jan-18 18:30S 33°38' E 152°10'2 4.1
2018-Jan-18 18:00S 33°40' E 152°11'2 3.8
2018-Jan-18 17:30S 33°42' E 152°12'1 1.8
2018-Jan-18 17:00S 33°43' E 152°12'2 4.5
2018-Jan-18 16:30S 33°40' E 152°12'2 4.4
2018-Jan-18 16:00S 33°38' E 152°11'2 4.3
2018-Jan-18 15:30S 33°36' E 152°10'2 4.3
2018-Jan-18 15:00S 33°34' E 152°09'2 4.2
2018-Jan-18 14:30S 33°32' E 152°08'2 4.3
2018-Jan-18 14:00S 33°30' E 152°07'2 4.3
2018-Jan-18 13:26S 33°28' E 152°06'2 3.9
2018-Jan-18 13:00S 33°27' E 152°05'2 3.8
2018-Jan-18 12:23S 33°24' E 152°04'1 3.7
2018-Jan-18 12:00S 33°23' E 152°04'2 3.4
2018-Jan-18 11:28S 33°21' E 152°03'2 3.5
2018-Jan-18 11:01S 33°20' E 152°02'2 3.5
2018-Jan-18 10:31S 33°18' E 152°02'2 3.5
2018-Jan-18 10:00S 33°16' E 152°01'2 3.3
2018-Jan-18 09:30S 33°15' E 152°01'2 3.2
2018-Jan-18 09:00S 33°13' E 152°00'1 2.8
2018-Jan-18 08:30S 33°12' E 151°59'1 2.6
2018-Jan-18 08:01S 33°11' E 151°58'1 1.1
2018-Jan-18 07:30S 33°10' E 151°58'3 5.5
2018-Jan-18 07:00S 33°13' E 151°59'3 5.5
2018-Jan-18 06:30S 33°16' E 152°00'4 7.8
2018-Jan-18 06:01S 33°19' E 152°03'611.9
2018-Jan-18 05:31S 33°24' E 152°06'612.0
2018-Jan-18 05:00S 33°30' E 152°09'3 5.5
2018-Jan-18 04:31S 33°32' E 152°11'3 4.2
2018-Jan-18 03:41S 33°35' E 152°12'1 4.4
2018-Jan-18 03:27S 33°36' E 152°13'5 4.3
2018-Jan-18 02:17S 33°41' E 152°15'1 2.6
2018-Jan-18 01:59S 33°40' E 152°15'2 3.7
2018-Jan-18 01:30S 33°39' E 152°14'2 3.5
2018-Jan-18 01:00S 33°37' E 152°14'  

Dump ship's entire track history